Home > Products > Valid Products > TAF

000
FTUS43 KAPX 260747 AAA
TAFTVC
TAF AMD
KTVC 260747Z 2608/2706 33005KT P6SM SKC
     FM261400 35010KT P6SM SCT050
     FM261900 01010G18KT P6SM SCT050
     FM270400 33006KT P6SM BKN050=



000
FTUS43 KAPX 260747 AAA
TAFTVC
TAF AMD
KTVC 260747Z 2608/2706 33005KT P6SM SKC
     FM261400 35010KT P6SM SCT050
     FM261900 01010G18KT P6SM SCT050
     FM270400 33006KT P6SM BKN050=



000
FTUS43 KAPX 260747 AAA
TAFPLN
TAF AMD
KPLN 260747Z 2608/2706 30004KT P6SM SKC
     FM261400 33010KT P6SM SCT050
     FM262000 35010G17KT P6SM BKN050
     FM270100 33007KT P6SM OVC050=



000
FTUS43 KAPX 260747 AAA
TAFPLN
TAF AMD
KPLN 260747Z 2608/2706 30004KT P6SM SKC
     FM261400 33010KT P6SM SCT050
     FM262000 35010G17KT P6SM BKN050
     FM270100 33007KT P6SM OVC050=



000
FTUS43 KAPX 260747 AAA
TAFAPN
TAF AMD
KAPN 260747Z 2608/2706 34006KT P6SM FEW060
     FM261400 35010KT P6SM BKN050
     FM261900 35010G18KT P6SM BKN050
     FM270100 33009KT P6SM SCT025 OVC040=



000
FTUS43 KAPX 260520
TAFPLN
TAF
KPLN 260520Z 2606/2706 VRB03KT P6SM SCT060
     FM261400 33010KT P6SM BKN050
     FM262000 35010G17KT P6SM BKN050
     FM270100 33007KT P6SM OVC050=



000
FTUS43 KAPX 260520
TAFPLN
TAF
KPLN 260520Z 2606/2706 VRB03KT P6SM SCT060
     FM261400 33010KT P6SM BKN050
     FM262000 35010G17KT P6SM BKN050
     FM270100 33007KT P6SM OVC050=



000
FTUS43 KAPX 260520
TAFAPN
TAF
KAPN 260520Z 2606/2706 34006KT P6SM BKN060
     FM261400 35010KT P6SM BKN050
     FM261900 35010G18KT P6SM BKN050
     FM270100 33009KT P6SM SCT025 OVC040=



000
FTUS43 KAPX 260520
TAFTVC
TAF
KTVC 260520Z 2606/2706 00000KT P6SM SKC
     FM261400 35010KT P6SM SCT050
     FM261900 01010G18KT P6SM SCT050
     FM270400 33006KT P6SM BKN050=



000
FTUS43 KAPX 260520
TAFAPN
TAF
KAPN 260520Z 2606/2706 34006KT P6SM BKN060
     FM261400 35010KT P6SM BKN050
     FM261900 35010G18KT P6SM BKN050
     FM270100 33009KT P6SM SCT025 OVC040=



000
FTUS43 KAPX 260520
TAFTVC
TAF
KTVC 260520Z 2606/2706 00000KT P6SM SKC
     FM261400 35010KT P6SM SCT050
     FM261900 01010G18KT P6SM SCT050
     FM270400 33006KT P6SM BKN050=



000
FTUS43 KAPX 252320
TAFAPN
TAF
KAPN 252320Z 2600/2624 VRB03KT P6SM SKC
     FM260400 VRB03KT P6SM OVC050
     FM261400 35010KT P6SM SCT025 OVC040=



000
FTUS43 KAPX 252320
TAFPLN
TAF
KPLN 252320Z 2600/2624 VRB03KT P6SM SKC
     FM260600 VRB03KT P6SM SCT050
     FM261400 35010KT P6SM BKN050=



000
FTUS43 KAPX 252320
TAFPLN
TAF
KPLN 252320Z 2600/2624 VRB03KT P6SM SKC
     FM260600 VRB03KT P6SM SCT050
     FM261400 35010KT P6SM BKN050=



000
FTUS43 KAPX 252320
TAFTVC
TAF
KTVC 252320Z 2600/2624 VRB03KT P6SM SKC
     FM261400 35010KT P6SM SCT120=



000
FTUS43 KAPX 252320
TAFTVC
TAF
KTVC 252320Z 2600/2624 VRB03KT P6SM SKC
     FM261400 35010KT P6SM SCT120=



000
FTUS43 KAPX 252320
TAFAPN
TAF
KAPN 252320Z 2600/2624 VRB03KT P6SM SKC
     FM260400 VRB03KT P6SM OVC050
     FM261400 35010KT P6SM SCT025 OVC040=



000
FTUS43 KAPX 252018 AAA
TAFTVC
TAF AMD
KTVC 252018Z 2520/2618 02010KT P6SM SCT140
      TEMPO 2520/2523 OVC120
     FM260000 36003KT P6SM SKC
     FM261500 02011KT P6SM SCT040 BKN110=



000
FTUS43 KAPX 252018 AAA
TAFTVC
TAF AMD
KTVC 252018Z 2520/2618 02010KT P6SM SCT140
      TEMPO 2520/2523 OVC120
     FM260000 36003KT P6SM SKC
     FM261500 02011KT P6SM SCT040 BKN110=



000
FTUS43 KAPX 251720
TAFPLN
TAF
KPLN 251720Z 2518/2618 08011KT P6SM SKC
     FM260000 VRB02KT P6SM SKC
     FM260500 36003KT P6SM SCT050
     FM261400 36008KT P6SM BKN050=



000
FTUS43 KAPX 251720
TAFPLN
TAF
KPLN 251720Z 2518/2618 08011KT P6SM SKC
     FM260000 VRB02KT P6SM SKC
     FM260500 36003KT P6SM SCT050
     FM261400 36008KT P6SM BKN050=



000
FTUS43 KAPX 251720
TAFAPN
TAF
KAPN 251720Z 2518/2618 11008KT P6SM SKC
     FM260000 36003KT P6SM SKC
     FM260300 01004KT P6SM OVC050
     FM261300 01006KT P6SM BKN025 OVC040=



000
FTUS43 KAPX 251720
TAFTVC
TAF
KTVC 251720Z 2518/2618 02010KT P6SM SCT140
     FM260000 36003KT P6SM SKC
     FM261500 02011KT P6SM SCT040 BKN110=



000
FTUS43 KAPX 251720
TAFAPN
TAF
KAPN 251720Z 2518/2618 11008KT P6SM SKC
     FM260000 36003KT P6SM SKC
     FM260300 01004KT P6SM OVC050
     FM261300 01006KT P6SM BKN025 OVC040=



000
FTUS43 KAPX 251720
TAFTVC
TAF
KTVC 251720Z 2518/2618 02010KT P6SM SCT140
     FM260000 36003KT P6SM SKC
     FM261500 02011KT P6SM SCT040 BKN110=



000
FTUS43 KAPX 251120
TAFAPN
TAF
KAPN 251120Z 2512/2612 00000KT P6SM SKC
     FM251400 06007KT P6SM SKC
     FM260100 02004KT P6SM SCT050=



000
FTUS43 KAPX 251120
TAFTVC
TAF
KTVC 251120Z 2512/2612 VRB03KT P6SM BKN100
     FM251500 08007KT P6SM SCT100
     FM251900 04007KT P6SM SKC
     FM260100 36004KT P6SM SKC=



000
FTUS43 KAPX 251120
TAFPLN
TAF
KPLN 251120Z 2512/2612 00000KT P6SM SKC
     FM251400 07009KT P6SM SKC
     FM260100 01003KT P6SM SKC=



000
FTUS43 KAPX 250520
TAFTVC
TAF
KTVC 250520Z 2506/2606 VRB03KT P6SM OVC100
     FM251500 08007KT P6SM BKN120
     FM251900 04007KT P6SM SCT150
     FM260100 36004KT P6SM SKC=



000
FTUS43 KAPX 250520
TAFPLN
TAF
KPLN 250520Z 2506/2606 00000KT P6SM SCT150
     FM251400 07009KT P6SM SKC
     FM260100 01003KT P6SM SKC=



000
FTUS43 KAPX 250520
TAFPLN
TAF
KPLN 250520Z 2506/2606 00000KT P6SM SCT150
     FM251400 07009KT P6SM SKC
     FM260100 01003KT P6SM SKC=



000
FTUS43 KAPX 250520
TAFAPN
TAF
KAPN 250520Z 2506/2606 00000KT P6SM SCT150
     FM251400 06007KT P6SM SKC
     FM260100 02004KT P6SM SCT050=



000
FTUS43 KAPX 250520
TAFAPN
TAF
KAPN 250520Z 2506/2606 00000KT P6SM SCT150
     FM251400 06007KT P6SM SKC
     FM260100 02004KT P6SM SCT050=



000
FTUS43 KAPX 250520
TAFTVC
TAF
KTVC 250520Z 2506/2606 VRB03KT P6SM OVC100
     FM251500 08007KT P6SM BKN120
     FM251900 04007KT P6SM SCT150
     FM260100 36004KT P6SM SKC=



000
FTUS43 KAPX 242320
TAFPLN
TAF
KPLN 242320Z 2500/2524 VRB03KT P6SM SCT200
     FM250200 00000KT P6SM BKN140
     FM251400 07009KT P6SM SKC=



000
FTUS43 KAPX 242320
TAFAPN
TAF
KAPN 242320Z 2500/2524 VRB04KT P6SM SKC
     FM250400 00000KT P6SM BKN150
     FM251400 08008KT P6SM SKC=



000
FTUS43 KAPX 242320
TAFTVC
TAF
KTVC 242320Z 2500/2524 VRB03KT P6SM BKN100
     FM251500 08008KT P6SM SKC=



000
FTUS43 KAPX 241720
TAFPLN
TAF
KPLN 241720Z 2418/2518 29008KT P6SM FEW250
     FM250000 00000KT P6SM SCT200
     FM250200 00000KT P6SM BKN140
     FM251300 07009KT P6SM SKC=



000
FTUS43 KAPX 241720
TAFAPN
TAF
KAPN 241720Z 2418/2518 31012KT P6SM FEW250
     FM250000 VRB04KT P6SM FEW180
     FM250400 00000KT P6SM BKN150
     FM251300 08007KT P6SM SKC=



000
FTUS43 KAPX 241720
TAFTVC
TAF
KTVC 241720Z 2418/2518 03007KT P6SM SCT120
     FM250000 00000KT P6SM OVC100
     FM251200 08007KT P6SM BKN120
     FM251500 08009KT P6SM SKC=



000
FTUS43 KAPX 241720
TAFAPN
TAF
KAPN 241720Z 2418/2518 31012KT P6SM FEW250
     FM250000 VRB04KT P6SM FEW180
     FM250400 00000KT P6SM BKN150
     FM251300 08007KT P6SM SKC=



000
FTUS43 KAPX 241720
TAFTVC
TAF
KTVC 241720Z 2418/2518 03007KT P6SM SCT120
     FM250000 00000KT P6SM OVC100
     FM251200 08007KT P6SM BKN120
     FM251500 08009KT P6SM SKC=



000
FTUS43 KAPX 241720
TAFPLN
TAF
KPLN 241720Z 2418/2518 29008KT P6SM FEW250
     FM250000 00000KT P6SM SCT200
     FM250200 00000KT P6SM BKN140
     FM251300 07009KT P6SM SKC=



000
FTUS43 KAPX 241557 AAA
TAFTVC
TAF AMD
KTVC 241557Z 2416/2512 03006KT P6SM SCT250
     FM242000 02007KT P6SM BKN180
     FM250000 VRB03KT P6SM BKN120=



000
FTUS43 KAPX 241557 AAA
TAFTVC
TAF AMD
KTVC 241557Z 2416/2512 03006KT P6SM SCT250
     FM242000 02007KT P6SM BKN180
     FM250000 VRB03KT P6SM BKN120=



000
FTUS43 KAPX 241413 AAA
TAFAPN
TAF AMD
KAPN 241413Z 2414/2512 32010G16KT P6SM FEW250
      TEMPO 2414/2415 BKN035
     FM250000 VRB03KT P6SM SCT200=



000
FTUS43 KAPX 241413 AAA
TAFAPN
TAF AMD
KAPN 241413Z 2414/2512 32010G16KT P6SM FEW250
      TEMPO 2414/2415 BKN035
     FM250000 VRB03KT P6SM SCT200=



000
FTUS43 KAPX 241120
TAFAPN
TAF
KAPN 241120Z 2412/2512 31007KT P6SM SKC
     FM241400 32010G16KT P6SM FEW250
     FM250000 VRB03KT P6SM SCT200=



000
FTUS43 KAPX 241120
TAFTVC
TAF
KTVC 241120Z 2412/2512 VRB03KT P6SM SKC
     FM241400 33005KT P6SM SCT250
     FM242100 01007KT P6SM SCT150 SCT250
     FM250000 VRB03KT P6SM BKN120=



000
FTUS43 KAPX 241120
TAFPLN
TAF
KPLN 241120Z 2412/2512 29005KT P6SM SKC
     FM241400 28008KT P6SM FEW250
     FM250000 VRB03KT P6SM BKN200=



000
FTUS43 KAPX 241120
TAFAPN
TAF
KAPN 241120Z 2412/2512 31007KT P6SM SKC
     FM241400 32010G16KT P6SM FEW250
     FM250000 VRB03KT P6SM SCT200=



000
FTUS43 KAPX 241120
TAFTVC
TAF
KTVC 241120Z 2412/2512 VRB03KT P6SM SKC
     FM241400 33005KT P6SM SCT250
     FM242100 01007KT P6SM SCT150 SCT250
     FM250000 VRB03KT P6SM BKN120=



000
FTUS43 KAPX 241120
TAFPLN
TAF
KPLN 241120Z 2412/2512 29005KT P6SM SKC
     FM241400 28008KT P6SM FEW250
     FM250000 VRB03KT P6SM BKN200=



000
FTUS43 KAPX 240527
TAFTVC
TAF
KTVC 240527Z 2406/2506 VRB03KT P6SM SKC
     FM241400 33005KT P6SM SCT150 SCT250
     FM242100 01007KT P6SM SCT150 SCT250
     FM250000 VRB03KT P6SM BKN120=



000
FTUS43 KAPX 240527
TAFPLN
TAF
KPLN 240527Z 2406/2506 29005KT P6SM SKC
     FM241400 28008KT P6SM FEW250
     FM250000 VRB03KT P6SM BKN200=



000
FTUS43 KAPX 240527
TAFAPN
TAF
KAPN 240527Z 2406/2506 31007KT P6SM SKC
     FM241400 32010G16KT P6SM FEW250
     FM250000 VRB03KT P6SM SCT200=



000
FTUS43 KAPX 232333
TAFPLN
TAF
KPLN 232333Z 2400/2424 30009G18KT P6SM SKC
     FM240200 29005KT P6SM SKC
     FM241400 32009KT P6SM FEW250=



000
FTUS43 KAPX 232333
TAFAPN
TAF
KAPN 232333Z 2400/2424 31009G17KT P6SM SCT045
     FM240200 31007KT P6SM SKC
     FM241400 31010KT P6SM FEW250=



000
FTUS43 KAPX 232333
TAFTVC
TAF
KTVC 232333Z 2400/2424 04007KT P6SM SKC
     FM240200 VRB03KT P6SM SKC
     FM241400 03007KT P6SM SCT150 SCT250=



000
FTUS43 KAPX 232333
TAFTVC
TAF
KTVC 232333Z 2400/2424 04007KT P6SM SKC
     FM240200 VRB03KT P6SM SKC
     FM241400 03007KT P6SM SCT150 SCT250=



000
FTUS43 KAPX 232333
TAFAPN
TAF
KAPN 232333Z 2400/2424 31009G17KT P6SM SCT045
     FM240200 31007KT P6SM SKC
     FM241400 31010KT P6SM FEW250=



000
FTUS43 KAPX 232333
TAFPLN
TAF
KPLN 232333Z 2400/2424 30009G18KT P6SM SKC
     FM240200 29005KT P6SM SKC
     FM241400 32009KT P6SM FEW250=



000
FTUS43 KAPX 231812 AAA
TAFPLN
TAF AMD
KPLN 231812Z 2318/2418 30013G22KT P6SM OVC035
      TEMPO 2318/2320 OVC026
     FM232200 30010KT P6SM SKC
     FM240600 30005KT P6SM SKC
     FM241400 31009KT P6SM SKC=



000
FTUS43 KAPX 231812 AAA
TAFPLN
TAF AMD
KPLN 231812Z 2318/2418 30013G22KT P6SM OVC035
      TEMPO 2318/2320 OVC026
     FM232200 30010KT P6SM SKC
     FM240600 30005KT P6SM SKC
     FM241400 31009KT P6SM SKC=



000
FTUS43 KAPX 231720
TAFAPN
TAF
KAPN 231720Z 2318/2418 31013G20KT P6SM OVC040
     FM240000 31011KT P6SM SCT040
     FM240400 31007KT P6SM SKC
     FM241400 31010G18KT P6SM FEW040=



000
FTUS43 KAPX 231720
TAFTVC
TAF
KTVC 231720Z 2318/2418 32010G17KT P6SM OVC040
     FM231900 31011KT P6SM FEW040
     FM240000 33004KT P6SM SKC
     FM241400 35007KT P6SM SKC=



000
FTUS43 KAPX 231720
TAFTVC
TAF
KTVC 231720Z 2318/2418 32010G17KT P6SM OVC040
     FM231900 31011KT P6SM FEW040
     FM240000 33004KT P6SM SKC
     FM241400 35007KT P6SM SKC=



000
FTUS43 KAPX 231720
TAFPLN
TAF
KPLN 231720Z 2318/2418 30013G22KT P6SM OVC035
     FM232200 30010KT P6SM SKC
     FM240600 30005KT P6SM SKC
     FM241400 31009KT P6SM SKC=



000
FTUS43 KAPX 231720
TAFPLN
TAF
KPLN 231720Z 2318/2418 30013G22KT P6SM OVC035
     FM232200 30010KT P6SM SKC
     FM240600 30005KT P6SM SKC
     FM241400 31009KT P6SM SKC=



000
FTUS43 KAPX 231720
TAFAPN
TAF
KAPN 231720Z 2318/2418 31013G20KT P6SM OVC040
     FM240000 31011KT P6SM SCT040
     FM240400 31007KT P6SM SKC
     FM241400 31010G18KT P6SM FEW040=



000
FTUS43 KAPX 231627 AAA
TAFTVC
TAF AMD
KTVC 231627Z 2316/2412 32010G17KT P6SM OVC030
     FM231900 31012G19KT P6SM FEW040
     FM240000 33004KT P6SM SKC=



000
FTUS43 KAPX 231627 CCA
TAFPLN
TAF COR
KPLN 231627Z 2316/2412 30013G22KT P6SM OVC035
      TEMPO 2316/2318 BKN028 OVC035
     FM232100 30010KT P6SM SKC
     FM240600 30005KT P6SM SKC=



000
FTUS43 KAPX 231627 CCA
TAFPLN
TAF COR
KPLN 231627Z 2316/2412 30013G22KT P6SM OVC035
      TEMPO 2316/2318 BKN028 OVC035
     FM232100 30010KT P6SM SKC
     FM240600 30005KT P6SM SKC=



000
FTUS43 KAPX 231626 AAB
TAFPLN
TAF AMD
KPLN 231626Z 2316/2412 30013G22KT P6SM OVC035
     FM232100 30010KT P6SM SKC
     FM240600 30005KT P6SM SKC=



000
FTUS43 KAPX 231626 AAB
TAFAPN
TAF AMD
KAPN 231626Z 2316/2412 31013G23KT P6SM OVC040
     FM232300 31011KT P6SM SCT040
     FM240400 31007KT P6SM SKC=



000
FTUS43 KAPX 231626 AAB
TAFPLN
TAF AMD
KPLN 231626Z 2316/2412 30013G22KT P6SM OVC035
     FM232100 30010KT P6SM SKC
     FM240600 30005KT P6SM SKC=



000
FTUS43 KAPX 231304 AAA
TAFPLN
TAF AMD
KPLN 231304Z 2313/2412 30013G22KT P6SM -SHSN OVC035
      TEMPO 2313/2314 3SM -SHSN BKN030
     FM231500 29013G22KT P6SM VCSH BKN035
     FM231800 29013G22KT P6SM BKN050
     FM240000 30009KT P6SM SCT040
     FM240400 31005KT P6SM SKC=



000
FTUS43 KAPX 231304 AAA
TAFAPN
TAF AMD
KAPN 231304Z 2313/2412 29008G15KT P6SM SCT028 OVC035
      TEMPO 2313/2316 OVC028
     FM231600 31013G23KT P6SM BKN040
     FM240000 31011KT P6SM SCT040
     FM240500 31007KT P6SM SKC=



000
FTUS43 KAPX 231131
TAFPLN
TAF
KPLN 231131Z 2312/2412 30012KT P6SM -SHSN OVC040
      TEMPO 2312/2314 3SM -SHSN BKN030
     FM231500 29013G22KT P6SM VCSH BKN035
     FM231800 29013G22KT P6SM BKN050
     FM240000 30009KT P6SM SCT040
     FM240400 31005KT P6SM SKC=



000
FTUS43 KAPX 231131
TAFAPN
TAF
KAPN 231131Z 2312/2412 29007G16KT P6SM OVC027
     FM231400 31011G18KT P6SM BKN028 OVC040
     FM231600 31013G23KT P6SM BKN040
     FM240000 31011KT P6SM SCT040
     FM240500 31007KT P6SM SKC=



000
FTUS43 KAPX 231131
TAFTVC
TAF
KTVC 231131Z 2312/2412 31009KT P6SM OVC040
      TEMPO 2312/2314 31011G20KT 4SM -SHSN BKN028 OVC040
     FM231400 31010G18KT 6SM -SHSN SCT028 OVC040
     FM231600 31010G17KT P6SM BKN050
     FM240000 30009KT P6SM BKN060
     FM240400 00000KT P6SM SKC=



000
FTUS43 KAPX 231010 AAB
TAFTVC
TAF AMD
KTVC 231010Z 2310/2406 31009KT P6SM OVC040
      TEMPO 2310/2314 31011G20KT 4SM -SHSN BKN028 OVC040
     FM231400 31010G18KT 6SM -SHSN SCT028 OVC040
     FM231600 31010G17KT P6SM BKN050
     FM240000 30009KT P6SM BKN060
     FM240400 00000KT P6SM SKC=



000
FTUS43 KAPX 231006 AAB
TAFPLN
TAF AMD
KPLN 231006Z 2310/2406 31012KT P6SM -SN OVC028
     FM231200 30012KT P6SM -SHSN BKN028 OVC040
     FM231500 29013G22KT P6SM VCSH BKN035
     FM231800 29013G22KT P6SM BKN050
     FM240000 30009KT P6SM SCT040
     FM240400 31005KT P6SM SKC=



000
FTUS43 KAPX 231001 AAA
TAFAPN
TAF AMD
KAPN 231001Z 2310/2406 29007G16KT P6SM OVC027
     FM231400 31011G18KT P6SM BKN028 OVC040
     FM231600 31013G23KT P6SM BKN040
     FM240000 31011KT P6SM SCT040
     FM240500 31007KT P6SM SKC=



    US Dept of Commerce
    National Oceanic and Atmospheric Administration
    National Weather Service
    1325 East West Highway
    Silver Spring, MD 20910
    Page Author: NWS Internet Services Team
Disclaimer
Information Quality
Credits
Glossary
Privacy Policy
Freedom of Information Act (FOIA)
About Us
Career Opportunities